Solea — DBFI — position and weather

sailwx.info

Track history (hours):
 
Tides and Currents Weather Stations Pressure Air Temp Water Temp Dewpoint Dewpoint Depression Visibility Wind Speed Wind Dir Waves Ship Positions

Oceanographic research ship Solea (Germany)

Detailed information on ship capabilities available from University of Delaware's Ocean Information Center.

Last reported at 2019-Aug-19 09:44 UTC. Time now 2019-Aug-20 09:30 UTC.
Position N 54°41' E 012°45'.

Length 72 m; draft 5.2 m.

Type: Law enforcement. MMSI: 218692000.

Date/timePositionNaut miles runAvg speedWind from/ knotsBaromVisibWave heightAir tempDewpointWater temp
2019-Aug-19 09:44N 54°41' E 012°45'313.7
2019-Aug-19 09:30N 54°39' E 012°41'713.9
2019-Aug-19 09:00N 54°35' E 012°32'814.0
2019-Aug-19 08:27N 54°29' E 012°22'1013.9
2019-Aug-19 07:46N 54°22' E 012°11'613.9
2019-Aug-19 07:19N 54°18' E 012°03'611.7
2019-Aug-19 06:50N 54°12' E 012°04'0 0.4
2019-Aug-19 06:15N 54°12' E 012°04'2 2.8
2019-Aug-19 05:25N 54°12' E 012°00'9 6.3
2019-Aug-19 03:58N 54°13' E 011°45'0 0.6
2019-Aug-19 03:21N 54°12' E 011°45'0 0.6
2019-Aug-19 02:57N 54°12' E 011°45'0 0.6
2019-Aug-19 02:30N 54°12' E 011°46'0 0.6
2019-Aug-19 01:58N 54°12' E 011°46'1 0.6
2019-Aug-19 00:29N 54°11' E 011°47'0 0.5
2019-Aug-19 00:00N 54°11' E 011°47'0 0.4
2019-Aug-18 23:30N 54°11' E 011°47'1 1.2
2019-Aug-18 22:44N 54°11' E 011°46'0 0.5
2019-Aug-18 22:30N 54°11' E 011°46'0 0.5
2019-Aug-18 21:44N 54°11' E 011°47'0 0.6
2019-Aug-18 21:30N 54°11' E 011°47'0 0.4
2019-Aug-18 20:46N 54°10' E 011°47'2 2.8
2019-Aug-18 20:14N 54°12' E 011°46'0 0.3
2019-Aug-18 19:57N 54°12' E 011°46'0 0.4
2019-Aug-18 19:28N 54°12' E 011°46'0 0.5
2019-Aug-18 18:40N 54°11' E 011°46'0 0.5
2019-Aug-18 18:29N 54°11' E 011°46'0 0.5
2019-Aug-18 17:44N 54°11' E 011°47'0 0.2
2019-Aug-18 17:29N 54°11' E 011°47'1 1.3
2019-Aug-18 16:35N 54°12' E 011°46'0 0.5
2019-Aug-18 16:03N 54°12' E 011°46'0 0.4
2019-Aug-18 15:28N 54°11' E 011°46'6 9.3
2019-Aug-18 14:46N 54°15' E 011°55'610.6
2019-Aug-18 14:12N 54°18' E 012°04'310.0
2019-Aug-18 13:56N 54°19' E 012°08'5 9.9
2019-Aug-18 13:28N 54°23' E 012°13'510.0
2019-Aug-18 12:58N 54°27' E 012°19'610.2
2019-Aug-18 12:23N 54°31' E 012°25'610.1
2019-Aug-18 11:50N 54°35' E 012°32'19 4.5
2019-Aug-18 07:32N 54°45' E 013°00'1 2.1
2019-Aug-18 06:55N 54°44' E 012°60'3 8.5
2019-Aug-18 06:30N 54°42' E 013°04'510.6
2019-Aug-18 06:00N 54°41' E 013°14'511.0
2019-Aug-18 05:30N 54°42' E 013°23'4 8.2
2019-Aug-18 05:00N 54°39' E 013°28'2 0.3
2019-Aug-17 21:48N 54°38' E 013°27'0 0.2
2019-Aug-17 20:07N 54°37' E 013°27'0 0.3
2019-Aug-17 19:51N 54°37' E 013°27'0 0.1
2019-Aug-17 19:12N 54°37' E 013°27'0 0.2
2019-Aug-17 19:00N 54°37' E 013°27'0 0.1
2019-Aug-17 18:29N 54°37' E 013°28'0 0.0
2019-Aug-17 17:30N 54°37' E 013°27'0 0.1
2019-Aug-17 16:59N 54°37' E 013°27'0 0.3
2019-Aug-17 16:30N 54°37' E 013°27'0 0.5
2019-Aug-17 15:58N 54°37' E 013°27'0 0.5
2019-Aug-17 15:24N 54°36' E 013°27'0 0.4
2019-Aug-17 14:52N 54°36' E 013°27'5 7.4
2019-Aug-17 14:09N 54°42' E 013°28'3 0.1
2019-Aug-16 16:28N 54°39' E 013°27'0 0.7
2019-Aug-16 15:57N 54°39' E 013°26'0 0.7
2019-Aug-16 15:29N 54°39' E 013°26'0 0.5
2019-Aug-16 14:56N 54°38' E 013°25'25 4.1
2019-Aug-16 08:59N 54°41' E 012°43'6 0.3
2019-Aug-15 11:29N 54°42' E 012°53'510.6
2019-Aug-15 11:00N 54°40' E 012°45'710.7
2019-Aug-15 10:24N 54°37' E 012°35'510.7
2019-Aug-15 09:57N 54°33' E 012°29'810.9
2019-Aug-15 09:14N 54°28' E 012°20'311.1
2019-Aug-15 09:00N 54°26' E 012°17'811.0
2019-Aug-15 08:18N 54°20' E 012°08'9 8.0
2019-Aug-15 07:15N 54°12' E 012°04'0 0.3
2019-Aug-15 06:56N 54°12' E 012°04'0 0.2
2019-Aug-15 06:28N 54°12' E 012°04'2 2.7
2019-Aug-15 05:35N 54°12' E 011°60'9 6.8
2019-Aug-15 04:19N 54°14' E 011°46'2 7.0
2019-Aug-15 04:00N 54°15' E 011°42'0 0.3
2019-Aug-15 03:31N 54°15' E 011°42'1 0.8
2019-Aug-15 02:11N 54°14' E 011°43'0 0.8
2019-Aug-15 01:56N 54°14' E 011°44'0 0.8
2019-Aug-15 01:27N 54°13' E 011°44'0 0.8
2019-Aug-15 01:01N 54°13' E 011°44'0 0.8
2019-Aug-15 00:31N 54°13' E 011°44'0 0.7
2019-Aug-14 23:56N 54°12' E 011°45'0 0.5
2019-Aug-14 23:00N 54°12' E 011°45'0 0.4
2019-Aug-14 22:30N 54°12' E 011°45'0 0.3
2019-Aug-14 22:00N 54°12' E 011°45'0 0.4
2019-Aug-14 21:27N 54°12' E 011°45'0 0.3
2019-Aug-14 20:45N 54°11' E 011°44'0 0.3
2019-Aug-14 20:31N 54°11' E 011°44'0 0.4
2019-Aug-14 19:58N 54°11' E 011°44'2410.1
2019-Aug-14 17:38N 54°31' E 011°21'110.7
2019-Aug-14 17:30N 54°32' E 011°19'511.2
2019-Aug-14 17:01N 54°35' E 011°11'611.3
2019-Aug-14 16:31N 54°38' E 011°03'510.5
2019-Aug-14 16:01N 54°41' E 010°56'5 9.7
2019-Aug-14 15:31N 54°45' E 010°52'612.1
2019-Aug-14 15:00N 54°51' E 010°52'611.7
2019-Aug-14 14:31N 54°57' E 010°56'611.7
2019-Aug-14 14:01N 55°02' E 011°01'611.9
2019-Aug-14 13:30N 55°08' E 011°02'120 9.6
2019-Aug-14 01:00N 57°07' E 011°38'5 9.6
2019-Aug-14 00:26N 57°12' E 011°34'4 9.7
2019-Aug-14 00:01N 57°16' E 011°32'5 9.9
2019-Aug-13 23:31N 57°20' E 011°29'510.2
2019-Aug-13 23:00N 57°25' E 011°26'5 9.9
2019-Aug-13 22:30N 57°29' E 011°20'510.2
2019-Aug-13 22:00N 57°33' E 011°14'510.6
2019-Aug-13 21:30N 57°36' E 011°06'510.5
2019-Aug-13 21:00N 57°40' E 010°59'510.4
2019-Aug-13 20:30N 57°43' E 010°52'511.0
2019-Aug-13 20:00N 57°47' E 010°44'610.9
2019-Aug-13 19:29N 57°47' E 010°33'510.6
2019-Aug-13 19:00N 57°45' E 010°24'8610.2
2019-Aug-13 10:34N 56°58' E 008°11'178 9.6
2019-Aug-12 16:03N 54°01' E 008°18'814.3
2019-Aug-12 15:28N 53°58' E 008°31'714.7
2019-Aug-12 15:00N 53°55' E 008°41'3 4.7
2019-Aug-12 14:20N 53°52' E 008°43'0 0.8
2019-Aug-12 13:59N 53°52' E 008°43'0 0.0
2019-Aug-11 22:28N 53°52' E 008°43'0 0.0
2019-Aug-11 19:10N 53°52' E 008°43'0 0.0
2019-Aug-11 17:59N 53°52' E 008°43'0 0.0
2019-Aug-11 11:40N 53°52' E 008°43'0 0.0
2019-Aug-11 10:04N 53°52' E 008°43'0 0.0
2019-Aug-11 03:34N 53°52' E 008°43'0 0.0
2019-Aug-11 00:17N 53°52' E 008°43'0 0.0
2019-Aug-10 13:58N 53°52' E 008°43'0 0.0
2019-Aug-10 13:28N 53°52' E 008°43'0 0.0
2019-Aug-10 12:52N 53°52' E 008°43'0 0.0
2019-Aug-10 12:28N 53°52' E 008°43'0 0.0
2019-Aug-10 11:58N 53°52' E 008°43'0 0.0
2019-Aug-10 11:28N 53°52' E 008°43'0 0.0
2019-Aug-10 10:34N 53°52' E 008°43'0 0.0
2019-Aug-10 10:28N 53°52' E 008°43'0 0.0
2019-Aug-10 09:52N 53°52' E 008°43'0 0.0
2019-Aug-10 09:16N 53°52' E 008°43'0 0.0
2019-Aug-10 08:52N 53°52' E 008°43'0 0.0
2019-Aug-10 08:28N 53°52' E 008°43'0 0.0
2019-Aug-10 07:58N 53°52' E 008°43'0 0.0
2019-Aug-10 07:28N 53°52' E 008°43'0 0.0
2019-Aug-10 06:46N 53°52' E 008°43'0 0.0
2019-Aug-10 06:16N 53°52' E 008°43'0 0.0
2019-Aug-10 05:52N 53°52' E 008°43'0 0.0
2019-Aug-10 05:28N 53°52' E 008°43'0 0.0
2019-Aug-10 04:34N 53°52' E 008°43'0 0.0
2019-Aug-10 04:22N 53°52' E 008°43'0 0.0
2019-Aug-10 03:59N 53°52' E 008°43'0 0.0
2019-Aug-10 03:28N 53°52' E 008°43'0 0.0
2019-Aug-10 02:59N 53°52' E 008°43'0 0.0
2019-Aug-10 02:25N 53°52' E 008°43'0 0.0
2019-Aug-10 01:58N 53°52' E 008°43'0 0.0
2019-Aug-10 01:28N 53°52' E 008°43'0 0.0
2019-Aug-10 00:40N 53°52' E 008°43'0 0.0
2019-Aug-10 00:28N 53°52' E 008°43'0 0.0
2019-Aug-09 23:52N 53°52' E 008°43'0 0.0
2019-Aug-09 23:22N 53°52' E 008°43'0 0.0
2019-Aug-09 22:52N 53°52' E 008°43'0 0.0
2019-Aug-09 22:16N 53°52' E 008°43'0 0.0
2019-Aug-09 21:58N 53°52' E 008°43'0 0.0
2019-Aug-09 21:28N 53°52' E 008°43'0 0.0
2019-Aug-09 20:58N 53°52' E 008°43'0 0.0
2019-Aug-09 20:28N 53°52' E 008°43'0 0.0
2019-Aug-09 19:58N 53°52' E 008°43'0 0.0
2019-Aug-09 18:28N 53°52' E 008°43'0 0.0
2019-Aug-09 17:58N 53°52' E 008°43'0 0.0
2019-Aug-09 11:27N 53°52' E 008°43'  
Track history (hours):
 
Tides and Currents Weather Stations Pressure Air Temp Water Temp Dewpoint Dewpoint Depression Visibility Wind Speed Wind Dir Waves Ship Positions

Oceanographic research ship Solea (Germany)

Detailed information on ship capabilities available from University of Delaware's Ocean Information Center.

Last reported at 2019-Aug-19 09:44 UTC. Time now 2019-Aug-20 09:30 UTC.
Position N 54°41' E 012°45'.

Length 72 m; draft 5.2 m.

Type: Law enforcement. MMSI: 218692000.

Date/timePositionNaut miles runAvg speedWind from/ knotsBaromVisibWave heightAir tempDewpointWater temp
2019-Aug-19 09:44N 54°41' E 012°45'313.7
2019-Aug-19 09:30N 54°39' E 012°41'713.9
2019-Aug-19 09:00N 54°35' E 012°32'814.0
2019-Aug-19 08:27N 54°29' E 012°22'1013.9
2019-Aug-19 07:46N 54°22' E 012°11'613.9
2019-Aug-19 07:19N 54°18' E 012°03'611.7
2019-Aug-19 06:50N 54°12' E 012°04'0 0.4
2019-Aug-19 06:15N 54°12' E 012°04'2 2.8
2019-Aug-19 05:25N 54°12' E 012°00'9 6.3
2019-Aug-19 03:58N 54°13' E 011°45'0 0.6
2019-Aug-19 03:21N 54°12' E 011°45'0 0.6
2019-Aug-19 02:57N 54°12' E 011°45'0 0.6
2019-Aug-19 02:30N 54°12' E 011°46'0 0.6
2019-Aug-19 01:58N 54°12' E 011°46'1 0.6
2019-Aug-19 00:29N 54°11' E 011°47'0 0.5
2019-Aug-19 00:00N 54°11' E 011°47'0 0.4
2019-Aug-18 23:30N 54°11' E 011°47'1 1.2
2019-Aug-18 22:44N 54°11' E 011°46'0 0.5
2019-Aug-18 22:30N 54°11' E 011°46'0 0.5
2019-Aug-18 21:44N 54°11' E 011°47'0 0.6
2019-Aug-18 21:30N 54°11' E 011°47'0 0.4
2019-Aug-18 20:46N 54°10' E 011°47'2 2.8
2019-Aug-18 20:14N 54°12' E 011°46'0 0.3
2019-Aug-18 19:57N 54°12' E 011°46'0 0.4
2019-Aug-18 19:28N 54°12' E 011°46'0 0.5
2019-Aug-18 18:40N 54°11' E 011°46'0 0.5
2019-Aug-18 18:29N 54°11' E 011°46'0 0.5
2019-Aug-18 17:44N 54°11' E 011°47'0 0.2
2019-Aug-18 17:29N 54°11' E 011°47'1 1.3
2019-Aug-18 16:35N 54°12' E 011°46'0 0.5
2019-Aug-18 16:03N 54°12' E 011°46'0 0.4
2019-Aug-18 15:28N 54°11' E 011°46'6 9.3
2019-Aug-18 14:46N 54°15' E 011°55'610.6
2019-Aug-18 14:12N 54°18' E 012°04'310.0
2019-Aug-18 13:56N 54°19' E 012°08'5 9.9
2019-Aug-18 13:28N 54°23' E 012°13'510.0
2019-Aug-18 12:58N 54°27' E 012°19'610.2
2019-Aug-18 12:23N 54°31' E 012°25'610.1
2019-Aug-18 11:50N 54°35' E 012°32'19 4.5
2019-Aug-18 07:32N 54°45' E 013°00'1 2.1
2019-Aug-18 06:55N 54°44' E 012°60'3 8.5
2019-Aug-18 06:30N 54°42' E 013°04'510.6
2019-Aug-18 06:00N 54°41' E 013°14'511.0
2019-Aug-18 05:30N 54°42' E 013°23'4 8.2
2019-Aug-18 05:00N 54°39' E 013°28'2 0.3
2019-Aug-17 21:48N 54°38' E 013°27'0 0.2
2019-Aug-17 20:07N 54°37' E 013°27'0 0.3
2019-Aug-17 19:51N 54°37' E 013°27'0 0.1
2019-Aug-17 19:12N 54°37' E 013°27'0 0.2
2019-Aug-17 19:00N 54°37' E 013°27'0 0.1
2019-Aug-17 18:29N 54°37' E 013°28'0 0.0
2019-Aug-17 17:30N 54°37' E 013°27'0 0.1
2019-Aug-17 16:59N 54°37' E 013°27'0 0.3
2019-Aug-17 16:30N 54°37' E 013°27'0 0.5
2019-Aug-17 15:58N 54°37' E 013°27'0 0.5
2019-Aug-17 15:24N 54°36' E 013°27'0 0.4
2019-Aug-17 14:52N 54°36' E 013°27'5 7.4
2019-Aug-17 14:09N 54°42' E 013°28'3 0.1
2019-Aug-16 16:28N 54°39' E 013°27'0 0.7
2019-Aug-16 15:57N 54°39' E 013°26'0 0.7
2019-Aug-16 15:29N 54°39' E 013°26'0 0.5
2019-Aug-16 14:56N 54°38' E 013°25'25 4.1
2019-Aug-16 08:59N 54°41' E 012°43'6 0.3
2019-Aug-15 11:29N 54°42' E 012°53'510.6
2019-Aug-15 11:00N 54°40' E 012°45'710.7
2019-Aug-15 10:24N 54°37' E 012°35'510.7
2019-Aug-15 09:57N 54°33' E 012°29'810.9
2019-Aug-15 09:14N 54°28' E 012°20'311.1
2019-Aug-15 09:00N 54°26' E 012°17'811.0
2019-Aug-15 08:18N 54°20' E 012°08'9 8.0
2019-Aug-15 07:15N 54°12' E 012°04'0 0.3
2019-Aug-15 06:56N 54°12' E 012°04'0 0.2
2019-Aug-15 06:28N 54°12' E 012°04'2 2.7
2019-Aug-15 05:35N 54°12' E 011°60'9 6.8
2019-Aug-15 04:19N 54°14' E 011°46'2 7.0
2019-Aug-15 04:00N 54°15' E 011°42'0 0.3
2019-Aug-15 03:31N 54°15' E 011°42'1 0.8
2019-Aug-15 02:11N 54°14' E 011°43'0 0.8
2019-Aug-15 01:56N 54°14' E 011°44'0 0.8
2019-Aug-15 01:27N 54°13' E 011°44'0 0.8
2019-Aug-15 01:01N 54°13' E 011°44'0 0.8
2019-Aug-15 00:31N 54°13' E 011°44'0 0.7
2019-Aug-14 23:56N 54°12' E 011°45'0 0.5
2019-Aug-14 23:00N 54°12' E 011°45'0 0.4
2019-Aug-14 22:30N 54°12' E 011°45'0 0.3
2019-Aug-14 22:00N 54°12' E 011°45'0 0.4
2019-Aug-14 21:27N 54°12' E 011°45'0 0.3
2019-Aug-14 20:45N 54°11' E 011°44'0 0.3
2019-Aug-14 20:31N 54°11' E 011°44'0 0.4
2019-Aug-14 19:58N 54°11' E 011°44'2410.1
2019-Aug-14 17:38N 54°31' E 011°21'110.7
2019-Aug-14 17:30N 54°32' E 011°19'511.2
2019-Aug-14 17:01N 54°35' E 011°11'611.3
2019-Aug-14 16:31N 54°38' E 011°03'510.5
2019-Aug-14 16:01N 54°41' E 010°56'5 9.7
2019-Aug-14 15:31N 54°45' E 010°52'612.1
2019-Aug-14 15:00N 54°51' E 010°52'611.7
2019-Aug-14 14:31N 54°57' E 010°56'611.7
2019-Aug-14 14:01N 55°02' E 011°01'611.9
2019-Aug-14 13:30N 55°08' E 011°02'120 9.6
2019-Aug-14 01:00N 57°07' E 011°38'5 9.6
2019-Aug-14 00:26N 57°12' E 011°34'4 9.7
2019-Aug-14 00:01N 57°16' E 011°32'5 9.9
2019-Aug-13 23:31N 57°20' E 011°29'510.2
2019-Aug-13 23:00N 57°25' E 011°26'5 9.9
2019-Aug-13 22:30N 57°29' E 011°20'510.2
2019-Aug-13 22:00N 57°33' E 011°14'510.6
2019-Aug-13 21:30N 57°36' E 011°06'510.5
2019-Aug-13 21:00N 57°40' E 010°59'510.4
2019-Aug-13 20:30N 57°43' E 010°52'511.0
2019-Aug-13 20:00N 57°47' E 010°44'610.9
2019-Aug-13 19:29N 57°47' E 010°33'510.6
2019-Aug-13 19:00N 57°45' E 010°24'8610.2
2019-Aug-13 10:34N 56°58' E 008°11'178 9.6
2019-Aug-12 16:03N 54°01' E 008°18'814.3
2019-Aug-12 15:28N 53°58' E 008°31'714.7
2019-Aug-12 15:00N 53°55' E 008°41'3 4.7
2019-Aug-12 14:20N 53°52' E 008°43'0 0.8
2019-Aug-12 13:59N 53°52' E 008°43'0 0.0
2019-Aug-11 22:28N 53°52' E 008°43'0 0.0
2019-Aug-11 19:10N 53°52' E 008°43'0 0.0
2019-Aug-11 17:59N 53°52' E 008°43'0 0.0
2019-Aug-11 11:40N 53°52' E 008°43'0 0.0
2019-Aug-11 10:04N 53°52' E 008°43'0 0.0
2019-Aug-11 03:34N 53°52' E 008°43'0 0.0
2019-Aug-11 00:17N 53°52' E 008°43'0 0.0
2019-Aug-10 13:58N 53°52' E 008°43'0 0.0
2019-Aug-10 13:28N 53°52' E 008°43'0 0.0
2019-Aug-10 12:52N 53°52' E 008°43'0 0.0
2019-Aug-10 12:28N 53°52' E 008°43'0 0.0
2019-Aug-10 11:58N 53°52' E 008°43'0 0.0
2019-Aug-10 11:28N 53°52' E 008°43'0 0.0
2019-Aug-10 10:34N 53°52' E 008°43'0 0.0
2019-Aug-10 10:28N 53°52' E 008°43'0 0.0
2019-Aug-10 09:52N 53°52' E 008°43'0 0.0
2019-Aug-10 09:16N 53°52' E 008°43'0 0.0
2019-Aug-10 08:52N 53°52' E 008°43'0 0.0
2019-Aug-10 08:28N 53°52' E 008°43'0 0.0
2019-Aug-10 07:58N 53°52' E 008°43'0 0.0
2019-Aug-10 07:28N 53°52' E 008°43'0 0.0
2019-Aug-10 06:46N 53°52' E 008°43'0 0.0
2019-Aug-10 06:16N 53°52' E 008°43'0 0.0
2019-Aug-10 05:52N 53°52' E 008°43'0 0.0
2019-Aug-10 05:28N 53°52' E 008°43'0 0.0
2019-Aug-10 04:34N 53°52' E 008°43'0 0.0
2019-Aug-10 04:22N 53°52' E 008°43'0 0.0
2019-Aug-10 03:59N 53°52' E 008°43'0 0.0
2019-Aug-10 03:28N 53°52' E 008°43'0 0.0
2019-Aug-10 02:59N 53°52' E 008°43'0 0.0
2019-Aug-10 02:25N 53°52' E 008°43'0 0.0
2019-Aug-10 01:58N 53°52' E 008°43'0 0.0
2019-Aug-10 01:28N 53°52' E 008°43'0 0.0
2019-Aug-10 00:40N 53°52' E 008°43'0 0.0
2019-Aug-10 00:28N 53°52' E 008°43'0 0.0
2019-Aug-09 23:52N 53°52' E 008°43'0 0.0
2019-Aug-09 23:22N 53°52' E 008°43'0 0.0
2019-Aug-09 22:52N 53°52' E 008°43'0 0.0
2019-Aug-09 22:16N 53°52' E 008°43'0 0.0
2019-Aug-09 21:58N 53°52' E 008°43'0 0.0
2019-Aug-09 21:28N 53°52' E 008°43'0 0.0
2019-Aug-09 20:58N 53°52' E 008°43'0 0.0
2019-Aug-09 20:28N 53°52' E 008°43'0 0.0
2019-Aug-09 19:58N 53°52' E 008°43'0 0.0
2019-Aug-09 18:28N 53°52' E 008°43'0 0.0
2019-Aug-09 17:58N 53°52' E 008°43'0 0.0
2019-Aug-09 11:27N 53°52' E 008°43'  

Dump ship's entire track history